createdAt,value
2018-08-04T00:01:21.132Z,11.63
2018-08-04T00:03:49.465Z,14.60
2018-08-04T00:06:17.784Z,11.17
2018-08-04T00:08:46.081Z,11.37
2018-08-04T00:11:14.464Z,10.40
2018-08-04T00:13:42.748Z,10.27
2018-08-04T00:16:11.125Z,11.67
2018-08-04T00:18:39.453Z,10.80
2018-08-04T00:21:07.753Z,10.60
2018-08-04T00:23:36.067Z,10.93
2018-08-04T00:26:04.404Z,11.07
2018-08-04T00:28:32.771Z,16.20
2018-08-04T00:31:01.093Z,11.27
2018-08-04T00:33:29.412Z,11.43
2018-08-04T00:35:57.753Z,14.57
2018-08-04T00:38:26.083Z,12.93
2018-08-04T00:40:54.404Z,13.30
2018-08-04T00:43:22.701Z,12.00
2018-08-04T00:45:50.998Z,14.27
2018-08-04T00:48:19.304Z,11.83
2018-08-04T00:50:47.626Z,11.87
2018-08-04T00:53:15.958Z,13.00
2018-08-04T00:55:44.324Z,11.93
2018-08-04T00:58:12.381Z,12.20
2018-08-04T01:00:40.745Z,12.10
2018-08-04T01:03:09.061Z,10.40
2018-08-04T01:05:37.393Z,12.07
2018-08-04T01:08:05.706Z,11.83
2018-08-04T01:10:34.050Z,12.30
2018-08-04T01:13:02.354Z,11.33
2018-08-04T01:15:30.668Z,11.70
2018-08-04T01:17:59.017Z,11.30
2018-08-04T01:20:27.329Z,11.57
2018-08-04T01:22:55.661Z,11.70
2018-08-04T01:25:23.958Z,11.20
2018-08-04T01:27:52.257Z,12.97
2018-08-04T01:30:20.561Z,11.17
2018-08-04T01:32:48.861Z,11.13
2018-08-04T01:35:17.215Z,12.00
2018-08-04T01:37:45.532Z,12.70
2018-08-04T01:40:13.869Z,12.13
2018-08-04T01:42:42.169Z,12.47
2018-08-04T01:45:10.539Z,12.93
2018-08-04T01:47:38.861Z,11.27
2018-08-04T01:50:07.238Z,16.43
2018-08-04T01:52:35.570Z,13.30
2018-08-04T01:55:03.883Z,11.80
2018-08-04T01:57:32.332Z,13.00
2018-08-04T02:00:00.653Z,12.40
2018-08-04T02:02:29.006Z,12.83
2018-08-04T02:04:57.346Z,13.07
2018-08-04T02:07:25.689Z,12.30
2018-08-04T02:09:54.069Z,13.60
2018-08-04T02:12:22.413Z,12.27
2018-08-04T02:14:50.806Z,12.03
2018-08-04T02:17:19.148Z,11.17
2018-08-04T02:19:47.456Z,11.77
2018-08-04T02:22:15.747Z,12.60
2018-08-04T02:24:44.121Z,12.20
2018-08-04T02:27:12.152Z,11.83
2018-08-04T02:29:40.473Z,12.80
2018-08-04T02:32:08.768Z,13.13
2018-08-04T02:34:37.073Z,14.07
2018-08-04T02:37:05.622Z,13.60
2018-08-04T02:39:33.925Z,13.57
2018-08-04T02:42:02.254Z,12.03
2018-08-04T02:44:30.602Z,13.03
2018-08-04T02:46:58.918Z,11.87
2018-08-04T02:49:27.266Z,13.93
2018-08-04T02:51:55.594Z,13.73
2018-08-04T02:54:23.908Z,14.97
2018-08-04T02:56:52.206Z,13.20
2018-08-04T02:59:20.531Z,14.03
2018-08-04T03:01:49.735Z,14.13
2018-08-04T03:04:18.115Z,14.37
2018-08-04T03:06:46.469Z,13.87
2018-08-04T03:09:14.778Z,12.63
2018-08-04T03:11:43.129Z,14.20
2018-08-04T03:14:11.480Z,13.80
2018-08-04T03:16:39.793Z,13.43
2018-08-04T03:19:08.118Z,13.20
2018-08-04T03:21:36.443Z,14.93
2018-08-04T03:24:04.773Z,13.10
2018-08-04T03:26:33.130Z,13.37
2018-08-04T03:29:01.427Z,14.87
2018-08-04T03:31:29.738Z,13.57
2018-08-04T03:33:58.032Z,14.37
2018-08-04T03:36:26.344Z,14.00
2018-08-04T03:38:54.739Z,13.40
2018-08-04T03:41:23.079Z,14.97
2018-08-04T03:43:51.871Z,12.27
2018-08-04T03:46:20.145Z,12.77
2018-08-04T03:48:48.464Z,12.07
2018-08-04T03:51:16.796Z,12.57
2018-08-04T03:53:45.113Z,13.27
2018-08-04T03:56:13.465Z,15.77
2018-08-04T03:58:41.753Z,13.17
2018-08-04T04:01:10.073Z,12.40
2018-08-04T04:03:38.096Z,15.07
2018-08-04T04:06:06.406Z,14.77
2018-08-04T04:08:34.738Z,16.50
2018-08-04T04:11:03.057Z,13.97
2018-08-04T04:13:31.379Z,13.40
2018-08-04T04:15:59.702Z,14.60
2018-08-04T04:18:28.018Z,14.90
2018-08-04T04:20:56.349Z,14.33
2018-08-04T04:23:24.649Z,13.83
2018-08-04T04:25:52.965Z,14.70
2018-08-04T04:28:21.306Z,14.83
2018-08-04T04:30:49.354Z,14.77
2018-08-04T04:33:17.692Z,15.00
2018-08-04T04:35:46.011Z,13.80
2018-08-04T04:38:14.367Z,13.93
2018-08-04T04:40:42.713Z,14.77
2018-08-04T04:43:11.029Z,11.67
2018-08-04T04:45:39.358Z,13.20
2018-08-04T04:48:07.643Z,13.17
2018-08-04T04:50:35.966Z,14.67
2018-08-04T04:53:04.314Z,13.80
2018-08-04T04:55:32.626Z,14.27
2018-08-04T04:58:00.975Z,12.47
2018-08-04T05:00:29.283Z,13.10
2018-08-04T05:02:57.563Z,12.60
2018-08-04T05:05:25.884Z,12.83
2018-08-04T05:07:54.226Z,13.20
2018-08-04T05:10:22.555Z,12.70
2018-08-04T05:12:50.905Z,13.30
2018-08-04T05:15:19.208Z,12.73
2018-08-04T05:17:47.530Z,11.50
2018-08-04T05:20:15.870Z,11.80
2018-08-04T05:22:44.214Z,12.60
2018-08-04T05:25:12.257Z,12.13
2018-08-04T05:27:40.576Z,12.30
2018-08-04T05:30:09.032Z,11.90
2018-08-04T05:32:37.388Z,12.30
2018-08-04T05:35:05.709Z,11.77
2018-08-04T05:37:34.045Z,12.23
2018-08-04T05:40:02.409Z,12.40
2018-08-04T05:42:30.777Z,12.70
2018-08-04T05:44:59.109Z,13.73
2018-08-04T05:47:27.506Z,12.20
2018-08-04T05:49:55.882Z,12.70
2018-08-04T05:52:24.121Z,11.60
2018-08-04T05:54:52.458Z,12.87
2018-08-04T05:57:20.760Z,12.57
2018-08-04T05:59:49.069Z,11.00
2018-08-04T06:02:17.401Z,12.10
2018-08-04T06:04:45.754Z,10.13
2018-08-04T06:07:14.395Z,9.93
2018-08-04T06:09:42.697Z,9.00
2018-08-04T06:12:10.993Z,10.00
2018-08-04T06:14:39.318Z,11.00
2018-08-04T06:17:07.612Z,11.57
2018-08-04T06:19:35.947Z,9.73
2018-08-04T06:22:04.299Z,9.60
2018-08-04T06:24:32.556Z,9.97
2018-08-04T06:27:00.868Z,9.80
2018-08-04T06:29:29.223Z,8.73
2018-08-04T06:31:57.637Z,9.70
2018-08-04T06:34:25.944Z,9.10
2018-08-04T06:36:54.628Z,9.37
2018-08-04T06:39:22.932Z,10.33
2018-08-04T06:41:51.207Z,9.07
2018-08-04T06:44:19.543Z,9.43
2018-08-04T06:46:48.061Z,9.87
2018-08-04T06:49:16.125Z,9.37
2018-08-04T06:51:44.422Z,9.93
2018-08-04T06:54:12.759Z,10.20
2018-08-04T06:56:41.148Z,13.30
2018-08-04T06:59:09.461Z,10.77
2018-08-04T07:01:37.824Z,10.63
2018-08-04T07:04:06.150Z,10.70
2018-08-04T07:06:34.424Z,10.43
2018-08-04T07:09:02.727Z,13.80
2018-08-04T07:11:31.187Z,9.67
2018-08-04T07:13:59.528Z,10.40
2018-08-04T07:16:27.931Z,10.33
2018-08-04T07:18:56.474Z,13.80
2018-08-04T07:21:24.787Z,9.20
2018-08-04T07:23:53.090Z,10.67
2018-08-04T07:26:21.425Z,12.30
2018-08-04T07:28:49.738Z,10.40
2018-08-04T07:31:18.052Z,9.23
2018-08-04T07:33:46.058Z,9.63
2018-08-04T07:36:14.416Z,9.50
2018-08-04T07:38:42.735Z,10.47
2018-08-04T07:41:11.131Z,10.10
2018-08-04T07:43:39.420Z,9.37
2018-08-04T07:46:07.737Z,9.10
2018-08-04T07:48:36.037Z,9.10
2018-08-04T07:51:04.368Z,9.60
2018-08-04T07:53:32.722Z,10.40
2018-08-04T07:56:01.006Z,9.43
2018-08-04T07:58:29.335Z,8.93
2018-08-04T08:00:57.695Z,9.23
2018-08-04T08:03:26.040Z,11.33
2018-08-04T08:05:56.705Z,9.40
2018-08-04T08:08:25.001Z,9.27
2018-08-04T08:10:53.495Z,10.13
2018-08-04T08:13:21.834Z,8.63
2018-08-04T08:15:50.144Z,7.90
2018-08-04T08:18:18.504Z,9.07
2018-08-04T08:20:47.816Z,9.03
2018-08-04T08:23:16.299Z,12.50
2018-08-04T08:25:55.970Z,9.10
2018-08-04T08:28:24.345Z,7.73
2018-08-04T08:30:52.670Z,8.70
2018-08-04T08:33:20.986Z,11.33
2018-08-04T08:35:49.314Z,9.90
2018-08-04T08:38:18.263Z,9.27
2018-08-04T08:40:46.762Z,7.63
2018-08-04T08:43:15.110Z,7.70
2018-08-04T08:45:43.509Z,8.10
2018-08-04T08:48:11.866Z,8.07
2018-08-04T08:50:40.198Z,7.43
2018-08-04T08:53:08.581Z,8.40
2018-08-04T08:55:36.810Z,7.17
2018-08-04T08:58:05.530Z,7.33
2018-08-04T09:00:33.832Z,6.43
2018-08-04T09:03:02.186Z,6.37
2018-08-04T09:05:30.538Z,8.40
2018-08-04T09:07:58.978Z,7.30
2018-08-04T09:10:28.369Z,7.83
2018-08-04T09:12:56.442Z,7.87
2018-08-04T09:15:24.742Z,7.30
2018-08-04T09:17:53.176Z,8.20
2018-08-04T09:20:22.616Z,7.30
2018-08-04T09:22:53.182Z,10.13
2018-08-04T09:25:21.525Z,7.97
2018-08-04T09:27:49.943Z,8.63
2018-08-04T09:30:18.294Z,9.23
2018-08-04T09:32:47.046Z,10.17
2018-08-04T09:35:16.088Z,8.63
2018-08-04T09:37:46.961Z,8.33
2018-08-04T09:40:16.465Z,8.60
2018-08-04T09:42:48.053Z,9.87
2018-08-04T09:45:16.990Z,7.20
2018-08-04T09:47:47.353Z,7.23
2018-08-04T09:50:15.652Z,12.00
2018-08-04T09:52:44.017Z,9.40
2018-08-04T09:55:12.669Z,7.70
2018-08-04T09:57:41.637Z,8.40
2018-08-04T10:00:15.940Z,7.53
2018-08-04T10:02:44.228Z,7.30
2018-08-04T10:05:12.596Z,7.57
2018-08-04T10:07:41.489Z,7.80
2018-08-04T10:10:09.918Z,7.43
2018-08-04T10:12:38.342Z,8.43
2018-08-04T10:15:08.012Z,8.30
2018-08-04T10:17:36.330Z,7.93
2018-08-04T10:20:05.242Z,7.97
2018-08-04T10:22:33.547Z,8.00
2018-08-04T10:25:01.893Z,8.07
2018-08-04T10:27:30.212Z,7.93
2018-08-04T10:29:59.046Z,8.83
2018-08-04T10:32:27.454Z,8.17
2018-08-04T10:34:56.205Z,8.13
2018-08-04T10:37:25.324Z,8.60
2018-08-04T10:39:54.309Z,7.93
2018-08-04T10:42:22.628Z,8.13
2018-08-04T10:44:51.286Z,8.53
2018-08-04T10:47:19.614Z,8.20
2018-08-04T10:49:47.967Z,6.73
2018-08-04T10:52:16.317Z,7.63
2018-08-04T10:54:58.790Z,9.23
2018-08-04T10:57:28.018Z,8.23
2018-08-04T11:00:03.873Z,8.73
2018-08-04T11:02:32.285Z,9.47
2018-08-04T11:05:00.722Z,9.20
2018-08-04T11:07:29.054Z,8.50
2018-08-04T11:09:57.382Z,9.43
2018-08-04T11:12:25.764Z,9.23
2018-08-04T11:14:54.081Z,8.87
2018-08-04T11:17:22.417Z,9.53
2018-08-04T11:19:50.713Z,9.43
2018-08-04T11:22:19.096Z,8.00
2018-08-04T11:24:47.421Z,10.70
2018-08-04T11:27:15.782Z,8.37
2018-08-04T11:29:44.143Z,8.03
2018-08-04T11:32:12.440Z,8.83
2018-08-04T11:34:40.819Z,8.43
2018-08-04T11:37:09.113Z,8.20
2018-08-04T11:39:37.442Z,8.80
2018-08-04T11:42:05.751Z,8.30
2018-08-04T11:44:34.063Z,8.37
2018-08-04T11:47:02.395Z,7.87
2018-08-04T11:49:30.732Z,7.50
2018-08-04T11:51:59.100Z,7.73
2018-08-04T11:54:27.397Z,7.70
2018-08-04T11:56:55.705Z,9.27
2018-08-04T11:59:24.015Z,7.83
2018-08-04T12:01:52.361Z,7.40
2018-08-04T12:04:20.679Z,7.17
2018-08-04T12:06:48.989Z,7.37
2018-08-04T12:09:17.306Z,7.50
2018-08-04T12:11:45.636Z,7.23
2018-08-04T12:14:13.968Z,11.20
2018-08-04T12:16:42.520Z,9.97
2018-08-04T12:19:10.907Z,10.23
2018-08-04T12:21:39.242Z,7.40
2018-08-04T12:24:07.525Z,10.43
2018-08-04T12:26:35.880Z,14.93
2018-08-04T12:29:04.189Z,9.60
2018-08-04T12:31:32.540Z,7.40
2018-08-04T12:34:00.889Z,7.83
2018-08-04T12:36:29.217Z,8.53
2018-08-04T12:38:57.545Z,7.63
2018-08-04T12:41:26.027Z,8.30
2018-08-04T12:43:54.398Z,8.13
2018-08-04T12:46:22.746Z,7.83
2018-08-04T12:48:51.062Z,7.27
2018-08-04T12:51:19.374Z,9.07
2018-08-04T12:53:47.722Z,7.97
2018-08-04T12:56:16.076Z,8.07
2018-08-04T12:58:44.517Z,7.63
2018-08-04T13:01:12.908Z,7.33
2018-08-04T13:03:41.180Z,6.43
2018-08-04T13:06:09.554Z,7.40
2018-08-04T13:08:37.893Z,6.97
2018-08-04T13:11:06.289Z,6.93
2018-08-04T13:13:34.658Z,8.20
2018-08-04T13:16:02.974Z,6.97
2018-08-04T13:18:31.344Z,7.60
2018-08-04T13:20:59.673Z,7.40
2018-08-04T13:23:27.986Z,7.67
2018-08-04T13:25:56.328Z,8.80
2018-08-04T13:28:24.349Z,7.77
2018-08-04T13:30:52.765Z,7.73
2018-08-04T13:33:21.377Z,8.20
2018-08-04T13:35:49.728Z,8.13
2018-08-04T13:38:18.057Z,7.70
2018-08-04T13:40:46.667Z,8.25
2018-08-04T13:43:15.082Z,8.15
2018-08-04T13:45:43.465Z,11.83
2018-08-04T13:48:11.836Z,8.00
2018-08-04T13:50:40.637Z,8.88
2018-08-04T13:53:09.008Z,8.55
2018-08-04T13:55:37.051Z,11.30
2018-08-04T13:58:05.658Z,8.23
2018-08-04T14:00:33.960Z,8.40
2018-08-04T14:03:02.253Z,8.00
2018-08-04T14:05:30.539Z,7.78
2018-08-04T14:07:58.826Z,8.65
2018-08-04T14:10:27.155Z,8.70
2018-08-04T14:12:55.474Z,8.98
2018-08-04T14:15:23.821Z,8.43
2018-08-04T14:17:52.182Z,7.63
2018-08-04T14:20:20.238Z,8.23
2018-08-04T14:22:48.643Z,14.60
2018-08-04T14:25:16.916Z,7.92
2018-08-04T14:27:45.289Z,7.70
2018-08-04T14:30:13.313Z,8.78
2018-08-04T14:32:41.645Z,8.53
2018-08-04T14:35:09.991Z,8.05
2018-08-04T14:37:38.325Z,8.95
2018-08-04T14:40:06.795Z,8.63
2018-08-04T14:42:35.113Z,7.97
2018-08-04T14:45:03.493Z,7.45
2018-08-04T14:47:31.883Z,8.10
2018-08-04T14:50:00.211Z,8.80
2018-08-04T14:52:28.527Z,8.08
2018-08-04T14:54:56.896Z,8.18
2018-08-04T14:57:25.242Z,8.18
2018-08-04T14:59:53.561Z,8.00
2018-08-04T15:02:21.871Z,8.28
2018-08-04T15:04:50.232Z,8.73
2018-08-04T15:07:18.557Z,7.95
2018-08-04T15:09:46.918Z,8.53
2018-08-04T15:12:15.230Z,7.78
2018-08-04T15:14:43.561Z,8.58
2018-08-04T15:17:11.650Z,7.92
2018-08-04T15:19:40.019Z,9.20
2018-08-04T15:22:08.435Z,8.00
2018-08-04T15:24:37.740Z,8.45
2018-08-04T15:27:06.049Z,8.43
2018-08-04T15:29:34.365Z,7.83
2018-08-04T15:32:02.771Z,8.50
2018-08-04T15:34:31.147Z,7.87
2018-08-04T15:36:59.494Z,8.50
2018-08-04T15:39:27.827Z,7.83
2018-08-04T15:41:56.203Z,8.37
2018-08-04T15:44:24.529Z,8.10
2018-08-04T15:46:52.881Z,7.60
2018-08-04T15:49:21.192Z,6.73
2018-08-04T15:51:49.557Z,9.60
2018-08-04T15:54:22.355Z,7.33
2018-08-04T15:56:50.713Z,7.17
2018-08-04T15:59:19.218Z,6.90
2018-08-04T16:01:47.671Z,7.17
2018-08-04T16:04:15.994Z,6.53
2018-08-04T16:06:44.340Z,7.20
2018-08-04T16:09:12.787Z,6.87
2018-08-04T16:11:41.977Z,6.73
2018-08-04T16:14:10.530Z,6.67
2018-08-04T16:16:39.662Z,6.50
2018-08-04T16:19:08.083Z,6.30
2018-08-04T16:21:36.463Z,8.03
2018-08-04T16:24:04.791Z,7.00
2018-08-04T16:26:33.104Z,8.60
2018-08-04T16:29:01.448Z,8.10
2018-08-04T16:31:29.798Z,6.20
2018-08-04T16:33:58.137Z,6.27
2018-08-04T16:36:26.453Z,5.30
2018-08-04T16:38:54.792Z,5.50
2018-08-04T16:41:23.133Z,6.10
2018-08-04T16:43:51.728Z,8.17
2018-08-04T16:46:20.046Z,5.40
2018-08-04T16:48:48.388Z,6.37
2018-08-04T16:51:16.701Z,5.37
2018-08-04T16:53:45.030Z,5.87
2018-08-04T16:56:13.434Z,6.60
2018-08-04T16:58:41.754Z,6.20
2018-08-04T17:01:10.329Z,5.67
2018-08-04T17:03:38.658Z,6.17
2018-08-04T17:06:07.009Z,6.23
2018-08-04T17:08:35.345Z,5.50
2018-08-04T17:11:03.679Z,4.87
2018-08-04T17:13:32.005Z,7.80
2018-08-04T17:16:00.316Z,5.70
2018-08-04T17:18:28.667Z,5.60
2018-08-04T17:20:56.958Z,4.70
2018-08-04T17:23:25.272Z,4.57
2018-08-04T17:25:53.782Z,4.50
2018-08-04T17:28:22.101Z,8.07
2018-08-04T17:30:50.420Z,6.80
2018-08-04T17:33:18.774Z,3.90
2018-08-04T17:35:47.089Z,4.93
2018-08-04T17:38:15.428Z,3.33
2018-08-04T17:40:44.426Z,3.50
2018-08-04T17:43:12.722Z,4.10
2018-08-04T17:45:41.217Z,6.63
2018-08-04T17:48:09.520Z,3.93
2018-08-04T17:50:37.989Z,3.90
2018-08-04T17:53:06.309Z,5.77
2018-08-04T17:55:34.614Z,4.43
2018-08-04T17:58:02.995Z,4.27
2018-08-04T18:00:31.295Z,3.30
2018-08-04T18:02:59.636Z,4.10
2018-08-04T18:05:27.939Z,5.00
2018-08-04T18:07:56.222Z,4.73
2018-08-04T18:10:24.532Z,4.10
2018-08-04T18:12:52.859Z,4.17
2018-08-04T18:15:21.170Z,9.27
2018-08-04T18:17:49.476Z,4.30
2018-08-04T18:20:17.769Z,3.43
2018-08-04T18:22:46.230Z,3.43
2018-08-04T18:25:14.549Z,3.67
2018-08-04T18:27:43.146Z,4.30
2018-08-04T18:30:11.511Z,3.70
2018-08-04T18:32:40.363Z,3.97
2018-08-04T18:35:08.682Z,7.23
2018-08-04T18:37:36.978Z,3.97
2018-08-04T18:40:05.506Z,3.90
2018-08-04T18:42:33.841Z,4.30
2018-08-04T18:45:02.259Z,4.50
2018-08-04T18:47:30.600Z,6.00
2018-08-04T18:49:58.949Z,5.70
2018-08-04T18:52:27.235Z,3.60
2018-08-04T18:54:55.554Z,3.00
2018-08-04T18:57:23.915Z,5.20
2018-08-04T18:59:52.310Z,5.37
2018-08-04T19:02:20.722Z,3.10
2018-08-04T19:04:49.097Z,3.17
2018-08-04T19:07:17.441Z,3.70
2018-08-04T19:09:45.792Z,3.07
2018-08-04T19:12:14.108Z,5.90
2018-08-04T19:14:42.430Z,2.27
2018-08-04T19:17:10.806Z,3.00
2018-08-04T19:19:39.216Z,3.57
2018-08-04T19:22:07.548Z,2.60
2018-08-04T19:24:35.924Z,3.50
2018-08-04T19:27:04.238Z,4.10
2018-08-04T19:29:32.559Z,3.03
2018-08-04T19:32:00.884Z,2.50
2018-08-04T19:34:29.244Z,4.70
2018-08-04T19:36:57.592Z,2.70
2018-08-04T19:39:25.902Z,2.83
2018-08-04T19:41:54.234Z,5.00
2018-08-04T19:44:22.630Z,4.17
2018-08-04T19:46:50.984Z,2.97
2018-08-04T19:49:19.316Z,2.53
2018-08-04T19:51:47.670Z,2.87
2018-08-04T19:54:16.021Z,2.93
2018-08-04T19:56:44.353Z,2.90
2018-08-04T19:59:12.665Z,3.00
2018-08-04T20:01:41.053Z,2.90
2018-08-04T20:04:09.419Z,3.93
2018-08-04T20:06:37.825Z,3.00
2018-08-04T20:09:08.342Z,2.67
2018-08-04T20:11:36.725Z,8.73
2018-08-04T20:14:05.095Z,2.90
2018-08-04T20:16:33.382Z,2.27
2018-08-04T20:19:02.037Z,4.13
2018-08-04T20:21:31.022Z,3.93
2018-08-04T20:23:59.380Z,4.57
2018-08-04T20:26:28.353Z,3.20
2018-08-04T20:28:56.705Z,6.60
2018-08-04T20:31:25.046Z,3.50
2018-08-04T20:33:53.387Z,3.20
2018-08-04T20:36:21.726Z,3.00
2018-08-04T20:38:50.258Z,3.90
2018-08-04T20:41:19.017Z,3.80
2018-08-04T20:43:47.342Z,2.80
2018-08-04T20:46:15.696Z,3.60
2018-08-04T20:48:44.096Z,3.70
2018-08-04T20:51:12.446Z,3.43
2018-08-04T20:53:40.798Z,3.40
2018-08-04T20:56:09.245Z,8.93
2018-08-04T20:58:37.564Z,3.87
2018-08-04T21:01:17.168Z,2.90
2018-08-04T21:03:45.482Z,4.47
2018-08-04T21:06:13.810Z,3.20
2018-08-04T21:08:42.174Z,3.63
2018-08-04T21:11:10.467Z,3.23
2018-08-04T21:13:39.228Z,3.20
2018-08-04T21:16:07.624Z,4.13
2018-08-04T21:18:36.005Z,4.67
2018-08-04T21:21:04.382Z,4.17
2018-08-04T21:23:32.921Z,6.57
2018-08-04T21:26:01.241Z,4.30
2018-08-04T21:28:29.632Z,5.83
2018-08-04T21:30:57.981Z,3.37
2018-08-04T21:33:26.456Z,2.90
2018-08-04T21:35:55.456Z,3.67
2018-08-04T21:38:23.766Z,4.90
2018-08-04T21:40:52.140Z,3.60
2018-08-04T21:43:20.455Z,3.00
2018-08-04T21:45:48.883Z,3.57
2018-08-04T21:48:17.337Z,3.50
2018-08-04T21:50:45.647Z,3.20
2018-08-04T21:53:14.008Z,4.57
2018-08-04T21:55:42.368Z,2.90
2018-08-04T21:58:10.795Z,4.80
2018-08-04T22:00:44.473Z,2.77
2018-08-04T22:03:12.815Z,3.90
2018-08-04T22:05:41.122Z,3.60
2018-08-04T22:08:20.632Z,3.63
2018-08-04T22:10:48.948Z,4.03
2018-08-04T22:13:17.337Z,5.10
2018-08-04T22:15:45.663Z,3.10
2018-08-04T22:18:14.010Z,3.00
2018-08-04T22:20:42.380Z,2.90
2018-08-04T22:23:10.857Z,3.20
2018-08-04T22:25:39.229Z,5.53
2018-08-04T22:28:08.265Z,3.63
2018-08-04T22:30:37.373Z,3.50
2018-08-04T22:33:06.392Z,3.70
2018-08-04T22:35:34.714Z,3.00
2018-08-04T22:38:03.049Z,3.43
2018-08-04T22:40:31.371Z,3.60
2018-08-04T22:42:59.674Z,5.03
2018-08-04T22:45:33.990Z,4.30
2018-08-04T22:48:02.286Z,3.50
2018-08-04T22:50:30.615Z,4.40
2018-08-04T22:52:59.009Z,4.43
2018-08-04T22:55:27.301Z,3.20
2018-08-04T22:57:55.661Z,5.37
2018-08-04T23:00:24.010Z,4.87
2018-08-04T23:02:52.310Z,4.70
2018-08-04T23:05:20.382Z,5.40
2018-08-04T23:07:48.729Z,8.20
2018-08-04T23:10:17.036Z,7.50
2018-08-04T23:12:45.317Z,3.73
2018-08-04T23:15:13.722Z,4.90
2018-08-04T23:17:42.054Z,3.50
2018-08-04T23:20:10.383Z,4.20
2018-08-04T23:22:38.756Z,5.07
2018-08-04T23:25:07.114Z,5.27
2018-08-04T23:27:35.432Z,5.23
2018-08-04T23:30:03.752Z,5.40
2018-08-04T23:32:32.064Z,4.50
2018-08-04T23:35:00.377Z,5.13
2018-08-04T23:37:29.106Z,8.50
2018-08-04T23:39:57.440Z,4.50
2018-08-04T23:42:25.734Z,5.00
2018-08-04T23:44:54.137Z,7.27
2018-08-04T23:47:22.491Z,5.37
2018-08-04T23:49:50.921Z,4.30
2018-08-04T23:52:19.205Z,5.63
2018-08-04T23:54:47.515Z,4.53
2018-08-04T23:57:15.821Z,5.27
2018-08-04T23:59:44.198Z,6.17
